Terminal Aerodrome Forecast
Issued by NWS Binghamton, NY

Home | Current Version | Previous Version | Text Only | Print | Product List | Glossary On
Versions: 1 2 3 4 5 6 7 8 9 10 11 12 13 14 15 16 17 18 19 20 21 22 23
000
FTUS41 KBGM 050852 AAC
TAFAVP
TAF AMD
KAVP 050852Z 0509/0606 10003KT P6SM SCT040
      TEMPO 0509/0513 OVC015
     FM051400 25006KT P6SM BKN045
     FM060100 VRB03KT P6SM SCT045=

USA.gov is the U.S. government's official web portal to all federal, state and local government web resources and services.